sensor_id;sensor_type;location;lat;lon;timestamp;pressure;altitude;pressure_sealevel;temperature;humidity
48527;BME280;34317;51.660;5.824;2023-02-26T00:01:21;101762.91;;;3.59;49.09
48527;BME280;34317;51.660;5.824;2023-02-26T00:03:50;101775.13;;;3.57;49.06
48527;BME280;34317;51.660;5.824;2023-02-26T00:06:18;101773.41;;;3.53;49.02
48527;BME280;34317;51.660;5.824;2023-02-26T00:08:46;101778.63;;;3.50;49.17
48527;BME280;34317;51.660;5.824;2023-02-26T00:11:13;101774.25;;;3.44;49.43
48527;BME280;34317;51.660;5.824;2023-02-26T00:13:42;101783.84;;;3.41;49.35
48527;BME280;34317;51.660;5.824;2023-02-26T00:18:48;101779.53;;;3.32;49.41
48527;BME280;34317;51.660;5.824;2023-02-26T00:21:17;101782.13;;;3.30;49.46
48527;BME280;34317;51.660;5.824;2023-02-26T00:23:45;101780.38;;;3.29;49.36
48527;BME280;34317;51.660;5.824;2023-02-26T00:26:12;101790.84;;;3.29;49.50
48527;BME280;34317;51.660;5.824;2023-02-26T00:28:40;101795.22;;;3.29;49.74
48527;BME280;34317;51.660;5.824;2023-02-26T00:31:07;101790.84;;;3.29;49.61
48527;BME280;34317;51.660;5.824;2023-02-26T00:33:35;101799.59;;;3.31;49.75
48527;BME280;34317;51.660;5.824;2023-02-26T00:36:14;101804.84;;;3.31;49.85
48527;BME280;34317;51.660;5.824;2023-02-26T00:38:53;101805.69;;;3.35;49.89
48527;BME280;34317;51.660;5.824;2023-02-26T00:41:23;101804.81;;;3.35;49.94
48527;BME280;34317;51.660;5.824;2023-02-26T00:43:51;101815.28;;;3.35;49.94
48527;BME280;34317;51.660;5.824;2023-02-26T00:46:43;101813.53;;;3.30;49.81
48527;BME280;34317;51.660;5.824;2023-02-26T00:49:33;101824.03;;;3.30;49.84
48527;BME280;34317;51.660;5.824;2023-02-26T00:52:05;101827.53;;;3.28;49.80
48527;BME280;34317;51.660;5.824;2023-02-26T00:54:36;101829.25;;;3.27;50.13
48527;BME280;34317;51.660;5.824;2023-02-26T00:57:03;101831.00;;;3.28;50.02
48527;BME280;34317;51.660;5.824;2023-02-26T00:59:31;101835.34;;;3.29;50.06
48527;BME280;34317;51.660;5.824;2023-02-26T01:02:00;101836.25;;;3.31;50.42
48527;BME280;34317;51.660;5.824;2023-02-26T01:04:28;101831.00;;;3.35;50.50
48527;BME280;34317;51.660;5.824;2023-02-26T01:06:56;101831.00;;;3.38;50.34
48527;BME280;34317;51.660;5.824;2023-02-26T01:11:55;101829.28;;;3.43;50.41
48527;BME280;34317;51.660;5.824;2023-02-26T01:14:24;101832.75;;;3.45;50.60
48527;BME280;34317;51.660;5.824;2023-02-26T01:19:55;101826.66;;;3.47;50.52
48527;BME280;34317;51.660;5.824;2023-02-26T01:25:47;101827.50;;;3.48;50.29
48527;BME280;34317;51.660;5.824;2023-02-26T01:28:17;101835.38;;;3.49;50.42
48527;BME280;34317;51.660;5.824;2023-02-26T01:30:45;101831.00;;;3.50;50.64
48527;BME280;34317;51.660;5.824;2023-02-26T01:33:22;101840.63;;;3.49;50.79
48527;BME280;34317;51.660;5.824;2023-02-26T01:36:00;101849.34;;;3.50;50.83
48527;BME280;34317;51.660;5.824;2023-02-26T01:38:45;101849.34;;;3.50;50.60
48527;BME280;34317;51.660;5.824;2023-02-26T01:41:35;101851.94;;;3.50;50.60
48527;BME280;34317;51.660;5.824;2023-02-26T01:44:35;101850.22;;;3.49;50.86
48527;BME280;34317;51.660;5.824;2023-02-26T01:47:20;101853.69;;;3.48;50.94
48527;BME280;34317;51.660;5.824;2023-02-26T01:49:49;101859.84;;;3.48;50.71
48527;BME280;34317;51.660;5.824;2023-02-26T01:55:24;101860.69;;;3.46;50.81
48527;BME280;34317;51.660;5.824;2023-02-26T01:57:56;101860.69;;;3.46;51.21
48527;BME280;34317;51.660;5.824;2023-02-26T02:00:25;101869.41;;;3.48;50.91
48527;BME280;34317;51.660;5.824;2023-02-26T02:02:52;101872.91;;;3.47;51.03
48527;BME280;34317;51.660;5.824;2023-02-26T02:05:25;101868.53;;;3.47;50.99
48527;BME280;34317;51.660;5.824;2023-02-26T02:07:55;101876.41;;;3.49;51.24
48527;BME280;34317;51.660;5.824;2023-02-26T02:10:24;101876.41;;;3.49;50.95
48527;BME280;34317;51.660;5.824;2023-02-26T02:13:16;101883.41;;;3.48;51.25
48527;BME280;34317;51.660;5.824;2023-02-26T02:21:18;101892.13;;;3.49;50.99
48527;BME280;34317;51.660;5.824;2023-02-26T02:30:05;101893.88;;;3.47;51.12
48527;BME280;34317;51.660;5.824;2023-02-26T02:32:48;101897.34;;;3.46;50.97
48527;BME280;34317;51.660;5.824;2023-02-26T02:35:25;101902.59;;;3.46;51.08
48527;BME280;34317;51.660;5.824;2023-02-26T02:40:42;101906.09;;;3.45;51.02
48527;BME280;34317;51.660;5.824;2023-02-26T02:43:16;101912.19;;;3.44;51.14
48527;BME280;34317;51.660;5.824;2023-02-26T02:45:56;101913.94;;;3.42;51.33
48527;BME280;34317;51.660;5.824;2023-02-26T02:48:37;101921.78;;;3.42;51.43
48527;BME280;34317;51.660;5.824;2023-02-26T02:51:12;101920.91;;;3.41;51.47
48527;BME280;34317;51.660;5.824;2023-02-26T02:56:39;101920.03;;;3.44;51.31
48527;BME280;34317;51.660;5.824;2023-02-26T02:59:14;101935.78;;;3.47;51.29
48527;BME280;34317;51.660;5.824;2023-02-26T03:01:44;101928.78;;;3.49;51.52
48527;BME280;34317;51.660;5.824;2023-02-26T03:04:15;101937.53;;;3.51;51.33
48527;BME280;34317;51.660;5.824;2023-02-26T03:06:43;101929.66;;;3.53;51.35
48527;BME280;34317;51.660;5.824;2023-02-26T03:09:12;101940.13;;;3.54;51.24
48527;BME280;34317;51.660;5.824;2023-02-26T03:11:40;101941.03;;;3.56;51.40
48527;BME280;34317;51.660;5.824;2023-02-26T03:14:10;101944.50;;;3.57;51.53
48527;BME280;34317;51.660;5.824;2023-02-26T03:22:49;101953.25;;;3.57;51.24
48527;BME280;34317;51.660;5.824;2023-02-26T03:25:44;101967.22;;;3.59;51.47
48527;BME280;34317;51.660;5.824;2023-02-26T03:28:20;101979.44;;;3.60;51.43
48527;BME280;34317;51.660;5.824;2023-02-26T03:39:17;101988.19;;;3.56;50.92
48527;BME280;34317;51.660;5.824;2023-02-26T03:41:52;101988.16;;;3.53;50.86
48527;BME280;34317;51.660;5.824;2023-02-26T03:44:28;101984.66;;;3.51;51.21
48527;BME280;34317;51.660;5.824;2023-02-26T03:47:00;101991.66;;;3.49;51.14
48527;BME280;34317;51.660;5.824;2023-02-26T03:49:33;101989.00;;;3.46;51.15
48527;BME280;34317;51.660;5.824;2023-02-26T03:52:03;101992.50;;;3.46;50.92
48527;BME280;34317;51.660;5.824;2023-02-26T03:54:55;101989.91;;;3.45;51.00
48527;BME280;34317;51.660;5.824;2023-02-26T03:57:50;101982.88;;;3.41;51.20
48527;BME280;34317;51.660;5.824;2023-02-26T04:00:32;101990.75;;;3.39;50.94
48527;BME280;34317;51.660;5.824;2023-02-26T04:03:06;101991.59;;;3.37;51.12
48527;BME280;34317;51.660;5.824;2023-02-26T04:05:38;101989.88;;;3.36;51.22
48527;BME280;34317;51.660;5.824;2023-02-26T04:08:08;101997.69;;;3.33;51.14
48527;BME280;34317;51.660;5.824;2023-02-26T04:10:39;101998.59;;;3.31;51.00
48527;BME280;34317;51.660;5.824;2023-02-26T04:13:08;101998.56;;;3.28;51.11
48527;BME280;34317;51.660;5.824;2023-02-26T04:15:36;102009.03;;;3.28;51.05
48527;BME280;34317;51.660;5.824;2023-02-26T04:18:04;102017.75;;;3.27;51.05
48527;BME280;34317;51.660;5.824;2023-02-26T04:20:31;102010.78;;;3.26;51.05
48527;BME280;34317;51.660;5.824;2023-02-26T04:22:59;102012.50;;;3.24;51.31
48527;BME280;34317;51.660;5.824;2023-02-26T04:25:26;102023.84;;;3.23;51.30
48527;BME280;34317;51.660;5.824;2023-02-26T04:27:54;102021.22;;;3.19;51.12
48527;BME280;34317;51.660;5.824;2023-02-26T04:30:22;102029.06;;;3.17;51.05
48527;BME280;34317;51.660;5.824;2023-02-26T04:32:49;102029.03;;;3.16;51.28
48527;BME280;34317;51.660;5.824;2023-02-26T04:35:17;102029.03;;;3.14;51.16
48527;BME280;34317;51.660;5.824;2023-02-26T04:37:44;102038.63;;;3.12;51.05
48527;BME280;34317;51.660;5.824;2023-02-26T04:40:12;102043.84;;;3.12;51.42
48527;BME280;34317;51.660;5.824;2023-02-26T04:42:39;102041.22;;;3.10;51.07
48527;BME280;34317;51.660;5.824;2023-02-26T04:45:07;102044.69;;;3.06;51.35
48527;BME280;34317;51.660;5.824;2023-02-26T04:47:37;102057.75;;;3.05;51.42
48527;BME280;34317;51.660;5.824;2023-02-26T04:50:05;102059.50;;;3.00;51.28
48527;BME280;34317;51.660;5.824;2023-02-26T04:52:32;102059.47;;;2.97;51.25
48527;BME280;34317;51.660;5.824;2023-02-26T04:55:00;102062.94;;;2.92;51.18
48527;BME280;34317;51.660;5.824;2023-02-26T04:57:28;102059.44;;;2.90;51.16
48527;BME280;34317;51.660;5.824;2023-02-26T04:59:55;102069.88;;;2.87;51.43
48527;BME280;34317;51.660;5.824;2023-02-26T05:02:27;102060.28;;;2.85;51.45
48527;BME280;34317;51.660;5.824;2023-02-26T05:04:54;102074.22;;;2.84;51.42
48527;BME280;34317;51.660;5.824;2023-02-26T05:07:22;102067.22;;;2.81;51.32
48527;BME280;34317;51.660;5.824;2023-02-26T05:09:49;102070.69;;;2.80;51.60
48527;BME280;34317;51.660;5.824;2023-02-26T05:12:16;102079.44;;;2.79;51.38
48527;BME280;34317;51.660;5.824;2023-02-26T05:14:44;102075.91;;;2.79;51.41
48527;BME280;34317;51.660;5.824;2023-02-26T05:17:12;102087.28;;;2.79;51.59
48527;BME280;34317;51.660;5.824;2023-02-26T05:19:39;102084.66;;;2.79;51.46
48527;BME280;34317;51.660;5.824;2023-02-26T05:22:07;102088.13;;;2.78;51.47
48527;BME280;34317;51.660;5.824;2023-02-26T05:24:34;102093.34;;;2.78;51.66
48527;BME280;34317;51.660;5.824;2023-02-26T05:27:01;102094.25;;;2.77;51.51
48527;BME280;34317;51.660;5.824;2023-02-26T05:29:30;102094.25;;;2.77;51.41
48527;BME280;34317;51.660;5.824;2023-02-26T05:32:02;102095.97;;;2.75;51.47
48527;BME280;34317;51.660;5.824;2023-02-26T05:34:29;102099.44;;;2.74;51.29
48527;BME280;34317;51.660;5.824;2023-02-26T05:36:56;102105.53;;;2.75;51.50
48527;BME280;34317;51.660;5.824;2023-02-26T05:39:24;102100.28;;;2.73;51.56
48527;BME280;34317;51.660;5.824;2023-02-26T05:41:51;102108.13;;;2.73;51.47
48527;BME280;34317;51.660;5.824;2023-02-26T05:44:21;102106.41;;;2.72;51.67
48527;BME280;34317;51.660;5.824;2023-02-26T05:46:49;102109.88;;;2.71;51.75
48527;BME280;34317;51.660;5.824;2023-02-26T05:49:16;102107.25;;;2.69;51.42
48527;BME280;34317;51.660;5.824;2023-02-26T05:51:43;102124.69;;;2.69;51.44
48527;BME280;34317;51.660;5.824;2023-02-26T05:54:11;102117.69;;;2.66;51.54
48527;BME280;34317;51.660;5.824;2023-02-26T05:56:38;102116.81;;;2.66;51.30
48527;BME280;34317;51.660;5.824;2023-02-26T05:59:05;102125.50;;;2.65;51.37
48527;BME280;34317;51.660;5.824;2023-02-26T06:01:33;102127.25;;;2.63;51.44
48527;BME280;34317;51.660;5.824;2023-02-26T06:04:00;102133.31;;;2.62;51.34
48527;BME280;34317;51.660;5.824;2023-02-26T06:06:27;102135.94;;;2.62;51.32
48527;BME280;34317;51.660;5.824;2023-02-26T06:08:54;102139.44;;;2.61;51.44
48527;BME280;34317;51.660;5.824;2023-02-26T06:11:21;102141.16;;;2.62;51.25
48527;BME280;34317;51.660;5.824;2023-02-26T06:13:49;102142.91;;;2.60;51.41
48527;BME280;34317;51.660;5.824;2023-02-26T06:16:16;102149.91;;;2.61;51.39
48527;BME280;34317;51.660;5.824;2023-02-26T06:18:43;102154.25;;;2.60;51.43
48527;BME280;34317;51.660;5.824;2023-02-26T06:21:11;102155.13;;;2.61;51.32
48527;BME280;34317;51.660;5.824;2023-02-26T06:23:38;102160.41;;;2.64;51.50
48527;BME280;34317;51.660;5.824;2023-02-26T06:26:05;102162.13;;;2.65;51.34
48527;BME280;34317;51.660;5.824;2023-02-26T06:28:33;102167.41;;;2.68;51.31
48527;BME280;34317;51.660;5.824;2023-02-26T06:31:00;102163.91;;;2.69;51.36
48527;BME280;34317;51.660;5.824;2023-02-26T06:33:28;102167.41;;;2.71;51.37
48527;BME280;34317;51.660;5.824;2023-02-26T06:35:55;102178.75;;;2.73;51.31
48527;BME280;34317;51.660;5.824;2023-02-26T06:38:23;102183.16;;;2.74;51.27
48527;BME280;34317;51.660;5.824;2023-02-26T06:40:51;102191.88;;;2.76;51.28
48527;BME280;34317;51.660;5.824;2023-02-26T06:43:18;102195.38;;;2.78;51.06
48527;BME280;34317;51.660;5.824;2023-02-26T06:45:46;102190.19;;;2.81;51.25
48527;BME280;34317;51.660;5.824;2023-02-26T06:48:13;102198.94;;;2.83;51.22
48527;BME280;34317;51.660;5.824;2023-02-26T06:50:41;102212.06;;;2.86;51.29
48527;BME280;34317;51.660;5.824;2023-02-26T06:53:08;102216.41;;;2.87;51.30
48527;BME280;34317;51.660;5.824;2023-02-26T06:55:35;102212.94;;;2.88;51.04
48527;BME280;34317;51.660;5.824;2023-02-26T06:58:03;102230.38;;;2.89;51.24
48527;BME280;34317;51.660;5.824;2023-02-26T07:00:30;102233.00;;;2.91;51.02
48527;BME280;34317;51.660;5.824;2023-02-26T07:02:57;102238.25;;;2.92;51.58
48527;BME280;34317;51.660;5.824;2023-02-26T07:05:24;102240.03;;;2.95;51.03
48527;BME280;34317;51.660;5.824;2023-02-26T07:07:51;102240.94;;;2.99;51.17
48527;BME280;34317;51.660;5.824;2023-02-26T07:10:19;102244.44;;;3.01;51.08
48527;BME280;34317;51.660;5.824;2023-02-26T07:12:47;102243.59;;;3.05;51.17
48527;BME280;34317;51.660;5.824;2023-02-26T07:15:15;102254.97;;;3.10;51.19
48527;BME280;34317;51.660;5.824;2023-02-26T07:17:42;102258.50;;;3.12;51.31
48527;BME280;34317;51.660;5.824;2023-02-26T07:20:10;102263.75;;;3.15;51.13
48527;BME280;34317;51.660;5.824;2023-02-26T07:22:38;102272.53;;;3.20;51.23
48527;BME280;34317;51.660;5.824;2023-02-26T07:25:06;102277.78;;;3.23;50.96
48527;BME280;34317;51.660;5.824;2023-02-26T07:27:35;102282.19;;;3.27;50.97
48527;BME280;34317;51.660;5.824;2023-02-26T07:30:04;102280.44;;;3.29;50.80
48527;BME280;34317;51.660;5.824;2023-02-26T07:32:32;102286.59;;;3.31;50.75
48527;BME280;34317;51.660;5.824;2023-02-26T07:34:59;102297.09;;;3.35;50.80
48527;BME280;34317;51.660;5.824;2023-02-26T07:37:27;102293.63;;;3.39;50.58
48527;BME280;34317;51.660;5.824;2023-02-26T07:39:55;102291.88;;;3.41;50.70
48527;BME280;34317;51.660;5.824;2023-02-26T07:42:23;102301.53;;;3.43;50.87
48527;BME280;34317;51.660;5.824;2023-02-26T07:44:52;102305.00;;;3.44;50.68
48527;BME280;34317;51.660;5.824;2023-02-26T07:47:19;102305.06;;;3.47;50.79
48527;BME280;34317;51.660;5.824;2023-02-26T07:49:46;102310.28;;;3.50;50.77
48527;BME280;34317;51.660;5.824;2023-02-26T07:52:14;102307.72;;;3.53;50.69
48527;BME280;34317;51.660;5.824;2023-02-26T07:54:41;102311.22;;;3.55;50.66
48527;BME280;34317;51.660;5.824;2023-02-26T07:57:08;102311.25;;;3.58;50.53
48527;BME280;34317;51.660;5.824;2023-02-26T07:59:35;102319.09;;;3.60;50.69
48527;BME280;34317;51.660;5.824;2023-02-26T08:02:03;102321.72;;;3.61;50.87
48527;BME280;34317;51.660;5.824;2023-02-26T08:04:30;102327.00;;;3.64;50.85
48527;BME280;34317;51.660;5.824;2023-02-26T08:06:59;102325.28;;;3.66;50.82
48527;BME280;34317;51.660;5.824;2023-02-26T08:09:27;102320.06;;;3.69;50.60
48527;BME280;34317;51.660;5.824;2023-02-26T08:11:55;102324.44;;;3.72;50.69
48527;BME280;34317;51.660;5.824;2023-02-26T08:14:22;102330.59;;;3.76;50.56
48527;BME280;34317;51.660;5.824;2023-02-26T08:16:50;102327.13;;;3.80;50.91
48527;BME280;34317;51.660;5.824;2023-02-26T08:19:18;102333.25;;;3.83;50.61
48527;BME280;34317;51.660;5.824;2023-02-26T08:21:46;102330.66;;;3.86;51.02
48527;BME280;34317;51.660;5.824;2023-02-26T08:24:15;102330.69;;;3.91;50.59
48527;BME280;34317;51.660;5.824;2023-02-26T08:26:42;102336.84;;;3.96;50.71
48527;BME280;34317;51.660;5.824;2023-02-26T08:29:09;102343.00;;;4.00;50.51
48527;BME280;34317;51.660;5.824;2023-02-26T08:31:36;102351.75;;;4.03;50.66
48527;BME280;34317;51.660;5.824;2023-02-26T08:34:04;102343.03;;;4.07;50.46
48527;BME280;34317;51.660;5.824;2023-02-26T08:36:32;102350.03;;;4.12;50.69
48527;BME280;34317;51.660;5.824;2023-02-26T08:38:59;102360.56;;;4.18;50.46
48527;BME280;34317;51.660;5.824;2023-02-26T08:41:27;102366.69;;;4.21;50.48
48527;BME280;34317;51.660;5.824;2023-02-26T08:43:56;102365.84;;;4.27;50.73
48527;BME280;34317;51.660;5.824;2023-02-26T08:46:23;102365.88;;;4.33;50.45
48527;BME280;34317;51.660;5.824;2023-02-26T08:48:51;102371.19;;;4.38;50.26
48527;BME280;34317;51.660;5.824;2023-02-26T08:51:22;102375.56;;;4.43;50.49
48527;BME280;34317;51.660;5.824;2023-02-26T08:53:50;102379.09;;;4.50;50.37
48527;BME280;34317;51.660;5.824;2023-02-26T08:56:18;102382.63;;;4.57;50.35
48527;BME280;34317;51.660;5.824;2023-02-26T08:58:46;102390.53;;;4.63;50.66
48527;BME280;34317;51.660;5.824;2023-02-26T09:01:13;102391.44;;;4.70;50.03
48527;BME280;34317;51.660;5.824;2023-02-26T09:03:40;102395.84;;;4.75;50.46
48527;BME280;34317;51.660;5.824;2023-02-26T09:06:08;102401.97;;;4.82;50.06
48527;BME280;34317;51.660;5.824;2023-02-26T09:08:35;102408.16;;;4.88;50.26
48527;BME280;34317;51.660;5.824;2023-02-26T09:11:03;102411.66;;;4.97;50.02
48527;BME280;34317;51.660;5.824;2023-02-26T09:13:31;102409.94;;;5.02;50.07
48527;BME280;34317;51.660;5.824;2023-02-26T09:15:59;102423.09;;;5.11;49.78
48527;BME280;34317;51.660;5.824;2023-02-26T09:18:27;102416.09;;;5.18;49.81
48527;BME280;34317;51.660;5.824;2023-02-26T09:20:54;102417.00;;;5.24;49.67
48527;BME280;34317;51.660;5.824;2023-02-26T09:23:22;102421.38;;;5.29;49.23
48527;BME280;34317;51.660;5.824;2023-02-26T09:25:53;102436.28;;;5.33;49.48
48527;BME280;34317;51.660;5.824;2023-02-26T09:28:23;102438.94;;;5.37;49.22
48527;BME280;34317;51.660;5.824;2023-02-26T09:30:52;102434.56;;;5.41;49.17
48527;BME280;34317;51.660;5.824;2023-02-26T09:33:20;102432.81;;;5.46;49.17
48527;BME280;34317;51.660;5.824;2023-02-26T09:35:49;102441.59;;;5.51;48.79
48527;BME280;34317;51.660;5.824;2023-02-26T09:38:17;102438.09;;;5.58;49.22
48527;BME280;34317;51.660;5.824;2023-02-26T09:40:51;102446.88;;;5.63;48.58
48527;BME280;34317;51.660;5.824;2023-02-26T09:46:45;102450.34;;;5.69;48.13
48527;BME280;34317;51.660;5.824;2023-02-26T09:55:12;102466.16;;;5.72;48.29
48527;BME280;34317;51.660;5.824;2023-02-26T09:57:42;102467.03;;;5.77;48.12
48527;BME280;34317;51.660;5.824;2023-02-26T10:00:23;102474.91;;;5.80;48.22
48527;BME280;34317;51.660;5.824;2023-02-26T10:03:16;102471.44;;;5.84;48.29
48527;BME280;34317;51.660;5.824;2023-02-26T10:06:25;102487.22;;;5.90;48.55
48527;BME280;34317;51.660;5.824;2023-02-26T10:12:03;102483.69;;;5.94;48.38
48527;BME280;34317;51.660;5.824;2023-02-26T10:17:06;102492.50;;;5.96;47.71
48527;BME280;34317;51.660;5.824;2023-02-26T10:19:41;102487.25;;;5.99;47.83
48527;BME280;34317;51.660;5.824;2023-02-26T10:25:13;102485.50;;;6.17;47.49
48527;BME280;34317;51.660;5.824;2023-02-26T10:33:46;102491.63;;;6.48;46.70
48527;BME280;34317;51.660;5.824;2023-02-26T10:36:27;102501.22;;;6.57;46.21
48527;BME280;34317;51.660;5.824;2023-02-26T10:39:23;102503.88;;;6.58;45.19
48527;BME280;34317;51.660;5.824;2023-02-26T10:41:54;102494.22;;;6.59;45.25
48527;BME280;34317;51.660;5.824;2023-02-26T10:44:33;102495.97;;;6.57;44.59
48527;BME280;34317;51.660;5.824;2023-02-26T10:49:59;102490.72;;;6.51;43.75
48527;BME280;34317;51.660;5.824;2023-02-26T10:52:29;102496.00;;;6.54;44.23
48527;BME280;34317;51.660;5.824;2023-02-26T11:00:42;102495.06;;;6.73;43.39
48527;BME280;34317;51.660;5.824;2023-02-26T11:03:18;102494.19;;;6.77;43.24
48527;BME280;34317;51.660;5.824;2023-02-26T11:05:45;102497.69;;;6.82;42.61
48527;BME280;34317;51.660;5.824;2023-02-26T11:08:23;102501.19;;;6.85;42.10
48527;BME280;34317;51.660;5.824;2023-02-26T11:10:52;102504.69;;;6.87;41.96
48527;BME280;34317;51.660;5.824;2023-02-26T11:13:23;102498.56;;;6.88;41.72
48527;BME280;34317;51.660;5.824;2023-02-26T11:15:54;102511.69;;;6.91;41.92
48527;BME280;34317;51.660;5.824;2023-02-26T11:18:26;102499.38;;;6.93;41.84
48527;BME280;34317;51.660;5.824;2023-02-26T11:20:57;102508.16;;;6.98;41.70
48527;BME280;34317;51.660;5.824;2023-02-26T11:23:29;102503.75;;;7.03;41.85
48527;BME280;34317;51.660;5.824;2023-02-26T11:26:02;102501.09;;;7.09;42.13
48527;BME280;34317;51.660;5.824;2023-02-26T11:28:36;102498.44;;;7.18;42.20
48527;BME280;34317;51.660;5.824;2023-02-26T11:31:05;102490.50;;;7.28;42.05
48527;BME280;34317;51.660;5.824;2023-02-26T11:33:37;102499.22;;;7.39;42.64
48527;BME280;34317;51.660;5.824;2023-02-26T11:36:11;102493.88;;;7.51;42.07
48527;BME280;34317;51.660;5.824;2023-02-26T11:38:43;102500.84;;;7.62;42.25
48527;BME280;34317;51.660;5.824;2023-02-26T11:41:15;102495.53;;;7.68;41.38
48527;BME280;34317;51.660;5.824;2023-02-26T11:43:46;102495.53;;;7.71;41.09
48527;BME280;34317;51.660;5.824;2023-02-26T11:46:14;102499.88;;;7.73;40.15
48527;BME280;34317;51.660;5.824;2023-02-26T11:48:45;102490.22;;;7.74;39.73
48527;BME280;34317;51.660;5.824;2023-02-26T11:51:22;102488.47;;;7.73;40.11
48527;BME280;34317;51.660;5.824;2023-02-26T11:53:53;102489.34;;;7.75;40.11
48527;BME280;34317;51.660;5.824;2023-02-26T11:56:41;102490.19;;;7.77;39.97
48527;BME280;34317;51.660;5.824;2023-02-26T11:59:23;102491.97;;;7.75;39.88
48527;BME280;34317;51.660;5.824;2023-02-26T12:01:52;102487.56;;;7.77;40.31
48527;BME280;34317;51.660;5.824;2023-02-26T12:04:22;102493.69;;;7.79;39.84
48527;BME280;34317;51.660;5.824;2023-02-26T12:06:53;102491.06;;;7.80;39.53
48527;BME280;34317;51.660;5.824;2023-02-26T12:09:20;102490.19;;;7.80;39.05
48527;BME280;34317;51.660;5.824;2023-02-26T12:12:17;102487.50;;;7.83;39.57
48527;BME280;34317;51.660;5.824;2023-02-26T12:15:13;102483.06;;;7.91;39.71
48527;BME280;34317;51.660;5.824;2023-02-26T12:20:51;102474.19;;;8.02;39.24
48527;BME280;34317;51.660;5.824;2023-02-26T12:39:51;102465.09;;;8.36;38.75
48527;BME280;34317;51.660;5.824;2023-02-26T12:45:11;102468.53;;;8.48;38.89
48527;BME280;34317;51.660;5.824;2023-02-26T12:47:56;102468.47;;;8.54;39.09
48527;BME280;34317;51.660;5.824;2023-02-26T12:50:36;102466.59;;;8.62;38.75
48527;BME280;34317;51.660;5.824;2023-02-26T12:56:06;102466.50;;;8.71;38.69
48527;BME280;34317;51.660;5.824;2023-02-26T13:10:09;102472.47;;;8.90;38.14
48527;BME280;34317;51.660;5.824;2023-02-26T13:12:59;102469.81;;;8.89;38.08
48527;BME280;34317;51.660;5.824;2023-02-26T13:15:50;102466.31;;;8.90;38.35
48527;BME280;34317;51.660;5.824;2023-02-26T13:21:22;102476.84;;;8.93;38.32
48527;BME280;34317;51.660;5.824;2023-02-26T13:23:58;102476.78;;;8.96;38.31
48527;BME280;34317;51.660;5.824;2023-02-26T13:26:28;102474.97;;;9.01;38.43
48527;BME280;34317;51.660;5.824;2023-02-26T13:31:30;102483.66;;;9.12;38.14
48527;BME280;34317;51.660;5.824;2023-02-26T13:34:03;102466.00;;;9.14;37.11
48527;BME280;34317;51.660;5.824;2023-02-26T13:36:33;102475.66;;;9.17;37.49
48527;BME280;34317;51.660;5.824;2023-02-26T13:42:28;102481.78;;;9.21;37.20
48527;BME280;34317;51.660;5.824;2023-02-26T13:56:16;102467.50;;;9.34;37.73
48527;BME280;34317;51.660;5.824;2023-02-26T13:58:51;102460.41;;;9.36;37.72
48527;BME280;34317;51.660;5.824;2023-02-26T14:01:33;102463.03;;;9.38;37.53
48527;BME280;34317;51.660;5.824;2023-02-26T14:06:57;102467.47;;;9.37;37.76
48527;BME280;34317;51.660;5.824;2023-02-26T14:09:30;102460.41;;;9.36;37.66
48527;BME280;34317;51.660;5.824;2023-02-26T14:11:59;102469.25;;;9.35;37.60
48527;BME280;34317;51.660;5.824;2023-02-26T14:14:32;102460.47;;;9.33;37.61
48527;BME280;34317;51.660;5.824;2023-02-26T14:20:24;102462.19;;;9.37;37.94
48527;BME280;34317;51.660;5.824;2023-02-26T14:22:35;102469.13;;;9.44;37.88
48527;BME280;34317;51.660;5.824;2023-02-26T14:25:35;102459.41;;;9.45;37.32
48527;BME280;34317;51.660;5.824;2023-02-26T14:31:05;102454.97;;;9.48;37.33
48527;BME280;34317;51.660;5.824;2023-02-26T14:33:58;102466.41;;;9.49;37.20
48527;BME280;34317;51.660;5.824;2023-02-26T14:36:36;102473.44;;;9.51;36.99
48527;BME280;34317;51.660;5.824;2023-02-26T14:39:12;102472.53;;;9.52;37.12
48527;BME280;34317;51.660;5.824;2023-02-26T14:41:43;102465.44;;;9.54;37.33
48527;BME280;34317;51.660;5.824;2023-02-26T14:44:17;102468.91;;;9.60;37.38
48527;BME280;34317;51.660;5.824;2023-02-26T14:46:47;102461.72;;;9.68;37.33
48527;BME280;34317;51.660;5.824;2023-02-26T14:49:35;102466.09;;;9.72;37.28
48527;BME280;34317;51.660;5.824;2023-02-26T14:58:02;102470.38;;;9.79;37.05
48527;BME280;34317;51.660;5.824;2023-02-26T15:11:40;102477.13;;;9.99;36.85
48527;BME280;34317;51.660;5.824;2023-02-26T15:14:21;102482.47;;;9.96;36.93
48527;BME280;34317;51.660;5.824;2023-02-26T15:24:51;102478.97;;;9.93;37.34
48527;BME280;34317;51.660;5.824;2023-02-26T15:27:19;102478.97;;;9.93;37.05
48527;BME280;34317;51.660;5.824;2023-02-26T15:29:49;102480.72;;;9.94;36.85
48527;BME280;34317;51.660;5.824;2023-02-26T15:32:25;102476.34;;;9.90;36.68
48527;BME280;34317;51.660;5.824;2023-02-26T15:37:27;102484.41;;;9.84;37.38
48527;BME280;34317;51.660;5.824;2023-02-26T15:39:56;102491.50;;;9.82;37.24
48527;BME280;34317;51.660;5.824;2023-02-26T15:42:28;102489.72;;;9.81;36.92
48527;BME280;34317;51.660;5.824;2023-02-26T15:45:04;102491.59;;;9.76;36.77
48527;BME280;34317;51.660;5.824;2023-02-26T15:47:34;102490.81;;;9.68;37.14
48527;BME280;34317;51.660;5.824;2023-02-26T15:50:03;102487.38;;;9.63;36.87
48527;BME280;34317;51.660;5.824;2023-02-26T15:52:30;102487.44;;;9.58;37.20
48527;BME280;34317;51.660;5.824;2023-02-26T15:55:03;102488.41;;;9.52;36.80
48527;BME280;34317;51.660;5.824;2023-02-26T15:57:32;102486.69;;;9.48;36.98
48527;BME280;34317;51.660;5.824;2023-02-26T16:00:04;102495.56;;;9.44;36.96
48527;BME280;34317;51.660;5.824;2023-02-26T16:02:40;102493.88;;;9.40;37.23
48527;BME280;34317;51.660;5.824;2023-02-26T16:05:09;102488.63;;;9.37;37.10
48527;BME280;34317;51.660;5.824;2023-02-26T16:07:37;102506.31;;;9.32;37.32
48527;BME280;34317;51.660;5.824;2023-02-26T16:10:07;102495.78;;;9.29;37.35
48527;BME280;34317;51.660;5.824;2023-02-26T16:12:44;102507.25;;;9.28;37.75
48527;BME280;34317;51.660;5.824;2023-02-26T16:15:19;102500.22;;;9.27;37.56